sensor_id;sensor_type;location;lat;lon;timestamp;P1;durP1;ratioP1;P2;durP2;ratioP2
52668;SDS011;59898;52.786;6.892;2023-08-07T00:00:03;11.88;;;6.53;;
52668;SDS011;59898;52.786;6.892;2023-08-07T00:03:25;9.73;;;6.07;;
52668;SDS011;59898;52.786;6.892;2023-08-07T00:06:45;8.30;;;5.75;;
52668;SDS011;59898;52.786;6.892;2023-08-07T00:10:06;9.30;;;6.07;;
52668;SDS011;59898;52.786;6.892;2023-08-07T00:13:27;9.82;;;5.43;;
52668;SDS011;59898;52.786;6.892;2023-08-07T00:16:47;10.07;;;6.68;;
52668;SDS011;59898;52.786;6.892;2023-08-07T00:20:08;7.78;;;5.68;;
52668;SDS011;59898;52.786;6.892;2023-08-07T00:23:29;8.98;;;6.38;;
52668;SDS011;59898;52.786;6.892;2023-08-07T00:26:49;6.95;;;5.65;;
52668;SDS011;59898;52.786;6.892;2023-08-07T00:30:10;8.73;;;6.22;;
52668;SDS011;59898;52.786;6.892;2023-08-07T00:33:31;7.13;;;5.95;;
52668;SDS011;59898;52.786;6.892;2023-08-07T00:36:52;9.25;;;6.10;;
52668;SDS011;59898;52.786;6.892;2023-08-07T00:40:12;7.72;;;5.38;;
52668;SDS011;59898;52.786;6.892;2023-08-07T00:43:33;7.32;;;5.75;;
52668;SDS011;59898;52.786;6.892;2023-08-07T00:46:53;9.05;;;6.05;;
52668;SDS011;59898;52.786;6.892;2023-08-07T00:50:14;10.80;;;6.00;;
52668;SDS011;59898;52.786;6.892;2023-08-07T00:53:37;7.15;;;5.65;;
52668;SDS011;59898;52.786;6.892;2023-08-07T00:56:59;7.88;;;5.38;;
52668;SDS011;59898;52.786;6.892;2023-08-07T01:00:35;9.00;;;7.45;;
52668;SDS011;59898;52.786;6.892;2023-08-07T01:03:55;9.80;;;5.25;;
52668;SDS011;59898;52.786;6.892;2023-08-07T01:07:16;7.88;;;5.43;;
52668;SDS011;59898;52.786;6.892;2023-08-07T01:14:17;6.65;;;5.32;;
52668;SDS011;59898;52.786;6.892;2023-08-07T01:17:55;6.88;;;4.95;;
52668;SDS011;59898;52.786;6.892;2023-08-07T01:21:18;9.48;;;5.28;;
52668;SDS011;59898;52.786;6.892;2023-08-07T01:24:40;7.13;;;5.00;;
52668;SDS011;59898;52.786;6.892;2023-08-07T01:28:17;7.38;;;4.45;;
52668;SDS011;59898;52.786;6.892;2023-08-07T01:31:46;11.30;;;5.30;;
52668;SDS011;59898;52.786;6.892;2023-08-07T01:35:12;6.85;;;4.53;;
52668;SDS011;59898;52.786;6.892;2023-08-07T01:38:35;6.55;;;4.50;;
52668;SDS011;59898;52.786;6.892;2023-08-07T01:41:57;6.57;;;4.63;;
52668;SDS011;59898;52.786;6.892;2023-08-07T01:45:26;7.55;;;4.95;;
52668;SDS011;59898;52.786;6.892;2023-08-07T01:48:48;8.18;;;4.60;;
52668;SDS011;59898;52.786;6.892;2023-08-07T01:52:08;6.25;;;4.50;;
52668;SDS011;59898;52.786;6.892;2023-08-07T01:55:29;7.28;;;4.88;;
52668;SDS011;59898;52.786;6.892;2023-08-07T01:58:50;7.75;;;4.25;;
52668;SDS011;59898;52.786;6.892;2023-08-07T02:02:10;6.40;;;4.95;;
52668;SDS011;59898;52.786;6.892;2023-08-07T02:05:31;5.38;;;3.97;;
52668;SDS011;59898;52.786;6.892;2023-08-07T02:08:54;5.05;;;3.80;;
52668;SDS011;59898;52.786;6.892;2023-08-07T02:12:15;10.25;;;4.40;;
52668;SDS011;59898;52.786;6.892;2023-08-07T02:15:35;10.07;;;6.30;;
52668;SDS011;59898;52.786;6.892;2023-08-07T02:18:56;6.68;;;5.00;;
52668;SDS011;59898;52.786;6.892;2023-08-07T02:22:17;8.48;;;3.95;;
52668;SDS011;59898;52.786;6.892;2023-08-07T02:25:37;9.82;;;4.13;;
52668;SDS011;59898;52.786;6.892;2023-08-07T02:28:58;6.57;;;3.80;;
52668;SDS011;59898;52.786;6.892;2023-08-07T02:32:18;6.00;;;4.10;;
52668;SDS011;59898;52.786;6.892;2023-08-07T02:35:39;10.65;;;3.13;;
52668;SDS011;59898;52.786;6.892;2023-08-07T02:38:59;8.52;;;3.50;;
52668;SDS011;59898;52.786;6.892;2023-08-07T02:42:20;10.10;;;4.22;;
52668;SDS011;59898;52.786;6.892;2023-08-07T02:45:40;7.82;;;3.53;;
52668;SDS011;59898;52.786;6.892;2023-08-07T02:49:01;9.65;;;3.47;;
52668;SDS011;59898;52.786;6.892;2023-08-07T02:52:22;9.45;;;4.03;;
52668;SDS011;59898;52.786;6.892;2023-08-07T02:55:43;10.35;;;3.33;;
52668;SDS011;59898;52.786;6.892;2023-08-07T02:59:04;10.32;;;3.58;;
52668;SDS011;59898;52.786;6.892;2023-08-07T03:02:25;5.63;;;3.10;;
52668;SDS011;59898;52.786;6.892;2023-08-07T03:05:51;7.47;;;3.10;;
52668;SDS011;59898;52.786;6.892;2023-08-07T03:09:12;8.75;;;3.55;;
52668;SDS011;59898;52.786;6.892;2023-08-07T03:12:33;15.02;;;3.20;;
52668;SDS011;59898;52.786;6.892;2023-08-07T03:15:59;12.82;;;3.28;;
52668;SDS011;59898;52.786;6.892;2023-08-07T03:19:21;8.75;;;3.70;;
52668;SDS011;59898;52.786;6.892;2023-08-07T03:22:42;6.75;;;3.70;;
52668;SDS011;59898;52.786;6.892;2023-08-07T03:26:06;8.70;;;4.07;;
52668;SDS011;59898;52.786;6.892;2023-08-07T03:29:28;11.55;;;3.30;;
52668;SDS011;59898;52.786;6.892;2023-08-07T03:32:48;9.38;;;4.10;;
52668;SDS011;59898;52.786;6.892;2023-08-07T03:36:10;11.05;;;3.40;;
52668;SDS011;59898;52.786;6.892;2023-08-07T03:39:30;6.78;;;3.53;;
52668;SDS011;59898;52.786;6.892;2023-08-07T03:42:51;8.20;;;3.65;;
52668;SDS011;59898;52.786;6.892;2023-08-07T03:46:11;7.53;;;3.42;;
52668;SDS011;59898;52.786;6.892;2023-08-07T03:49:32;12.05;;;4.05;;
52668;SDS011;59898;52.786;6.892;2023-08-07T03:52:52;9.73;;;3.22;;
52668;SDS011;59898;52.786;6.892;2023-08-07T03:56:13;13.15;;;4.03;;
52668;SDS011;59898;52.786;6.892;2023-08-07T03:59:33;15.05;;;3.55;;
52668;SDS011;59898;52.786;6.892;2023-08-07T04:02:54;12.60;;;4.78;;
52668;SDS011;59898;52.786;6.892;2023-08-07T04:06:14;6.90;;;3.50;;
52668;SDS011;59898;52.786;6.892;2023-08-07T04:09:36;10.38;;;4.38;;
52668;SDS011;59898;52.786;6.892;2023-08-07T04:12:56;8.85;;;3.65;;
52668;SDS011;59898;52.786;6.892;2023-08-07T04:16:17;10.25;;;4.03;;
52668;SDS011;59898;52.786;6.892;2023-08-07T04:19:37;9.95;;;4.03;;
52668;SDS011;59898;52.786;6.892;2023-08-07T04:22:58;9.95;;;3.40;;
52668;SDS011;59898;52.786;6.892;2023-08-07T04:26:18;13.57;;;3.47;;
52668;SDS011;59898;52.786;6.892;2023-08-07T04:29:39;9.25;;;4.13;;
52668;SDS011;59898;52.786;6.892;2023-08-07T04:32:59;11.10;;;3.28;;
52668;SDS011;59898;52.786;6.892;2023-08-07T04:36:20;7.43;;;3.17;;
52668;SDS011;59898;52.786;6.892;2023-08-07T04:39:41;12.65;;;3.42;;
52668;SDS011;59898;52.786;6.892;2023-08-07T04:43:02;8.90;;;3.42;;
52668;SDS011;59898;52.786;6.892;2023-08-07T04:46:22;7.30;;;2.83;;
52668;SDS011;59898;52.786;6.892;2023-08-07T04:49:43;10.50;;;3.08;;
52668;SDS011;59898;52.786;6.892;2023-08-07T04:53:04;6.97;;;3.33;;
52668;SDS011;59898;52.786;6.892;2023-08-07T04:56:25;7.05;;;3.03;;
52668;SDS011;59898;52.786;6.892;2023-08-07T04:59:45;6.53;;;3.50;;
52668;SDS011;59898;52.786;6.892;2023-08-07T05:03:06;8.43;;;2.95;;
52668;SDS011;59898;52.786;6.892;2023-08-07T05:06:26;6.25;;;3.47;;
52668;SDS011;59898;52.786;6.892;2023-08-07T05:09:47;7.18;;;3.28;;
52668;SDS011;59898;52.786;6.892;2023-08-07T05:13:09;6.93;;;3.13;;
52668;SDS011;59898;52.786;6.892;2023-08-07T05:16:30;7.18;;;3.33;;
52668;SDS011;59898;52.786;6.892;2023-08-07T05:19:50;5.63;;;2.97;;
52668;SDS011;59898;52.786;6.892;2023-08-07T05:23:11;8.93;;;3.40;;
52668;SDS011;59898;52.786;6.892;2023-08-07T05:26:32;11.55;;;4.18;;
52668;SDS011;59898;52.786;6.892;2023-08-07T05:29:52;6.93;;;3.38;;
52668;SDS011;59898;52.786;6.892;2023-08-07T05:33:13;7.63;;;3.60;;
52668;SDS011;59898;52.786;6.892;2023-08-07T05:36:35;13.40;;;4.35;;
52668;SDS011;59898;52.786;6.892;2023-08-07T05:39:57;14.85;;;4.05;;
52668;SDS011;59898;52.786;6.892;2023-08-07T05:43:18;11.18;;;4.05;;
52668;SDS011;59898;52.786;6.892;2023-08-07T05:46:39;18.50;;;5.35;;
52668;SDS011;59898;52.786;6.892;2023-08-07T05:49:59;10.50;;;4.75;;
52668;SDS011;59898;52.786;6.892;2023-08-07T05:53:20;11.70;;;3.63;;
52668;SDS011;59898;52.786;6.892;2023-08-07T05:56:41;9.30;;;3.80;;
52668;SDS011;59898;52.786;6.892;2023-08-07T06:00:01;7.88;;;3.60;;
52668;SDS011;59898;52.786;6.892;2023-08-07T06:03:23;8.40;;;3.70;;
52668;SDS011;59898;52.786;6.892;2023-08-07T06:06:43;9.05;;;3.95;;
52668;SDS011;59898;52.786;6.892;2023-08-07T06:10:05;11.02;;;4.15;;
52668;SDS011;59898;52.786;6.892;2023-08-07T06:13:26;9.10;;;4.57;;
52668;SDS011;59898;52.786;6.892;2023-08-07T06:16:47;11.32;;;5.00;;
52668;SDS011;59898;52.786;6.892;2023-08-07T06:20:08;8.73;;;3.45;;
52668;SDS011;59898;52.786;6.892;2023-08-07T06:23:29;7.45;;;4.15;;
52668;SDS011;59898;52.786;6.892;2023-08-07T06:26:50;8.68;;;4.60;;
52668;SDS011;59898;52.786;6.892;2023-08-07T06:30:11;11.52;;;4.10;;
52668;SDS011;59898;52.786;6.892;2023-08-07T06:33:32;13.57;;;4.15;;
52668;SDS011;59898;52.786;6.892;2023-08-07T06:36:55;12.02;;;4.57;;
52668;SDS011;59898;52.786;6.892;2023-08-07T06:40:16;8.38;;;3.80;;
52668;SDS011;59898;52.786;6.892;2023-08-07T06:43:36;9.02;;;4.13;;
52668;SDS011;59898;52.786;6.892;2023-08-07T06:46:57;13.98;;;4.95;;
52668;SDS011;59898;52.786;6.892;2023-08-07T06:50:18;10.38;;;4.38;;
52668;SDS011;59898;52.786;6.892;2023-08-07T06:53:38;12.10;;;4.88;;
52668;SDS011;59898;52.786;6.892;2023-08-07T06:56:59;10.98;;;4.50;;
52668;SDS011;59898;52.786;6.892;2023-08-07T07:00:19;13.38;;;4.72;;
52668;SDS011;59898;52.786;6.892;2023-08-07T07:03:40;16.38;;;5.57;;
52668;SDS011;59898;52.786;6.892;2023-08-07T07:07:00;12.02;;;4.53;;
52668;SDS011;59898;52.786;6.892;2023-08-07T07:10:21;16.38;;;3.97;;
52668;SDS011;59898;52.786;6.892;2023-08-07T07:13:41;9.57;;;4.90;;
52668;SDS011;59898;52.786;6.892;2023-08-07T07:17:02;15.60;;;4.55;;
52668;SDS011;59898;52.786;6.892;2023-08-07T07:20:23;17.00;;;4.82;;
52668;SDS011;59898;52.786;6.892;2023-08-07T07:23:43;14.95;;;4.25;;
52668;SDS011;59898;52.786;6.892;2023-08-07T07:27:04;12.45;;;4.15;;
52668;SDS011;59898;52.786;6.892;2023-08-07T07:30:25;9.65;;;4.47;;
52668;SDS011;59898;52.786;6.892;2023-08-07T07:33:45;11.68;;;4.05;;
52668;SDS011;59898;52.786;6.892;2023-08-07T07:37:07;9.60;;;4.30;;
52668;SDS011;59898;52.786;6.892;2023-08-07T07:40:27;8.20;;;3.83;;
52668;SDS011;59898;52.786;6.892;2023-08-07T07:43:48;19.27;;;4.97;;
52668;SDS011;59898;52.786;6.892;2023-08-07T07:47:08;11.57;;;3.35;;
52668;SDS011;59898;52.786;6.892;2023-08-07T07:50:29;10.82;;;3.90;;
52668;SDS011;59898;52.786;6.892;2023-08-07T07:53:50;9.75;;;3.10;;
52668;SDS011;59898;52.786;6.892;2023-08-07T07:57:10;7.82;;;3.72;;
52668;SDS011;59898;52.786;6.892;2023-08-07T08:00:31;4.85;;;2.67;;
52668;SDS011;59898;52.786;6.892;2023-08-07T08:03:52;8.95;;;3.17;;
52668;SDS011;59898;52.786;6.892;2023-08-07T08:07:12;8.40;;;2.40;;
52668;SDS011;59898;52.786;6.892;2023-08-07T08:10:33;3.70;;;2.20;;
52668;SDS011;59898;52.786;6.892;2023-08-07T08:13:54;4.78;;;2.55;;
52668;SDS011;59898;52.786;6.892;2023-08-07T08:17:14;6.80;;;2.42;;
52668;SDS011;59898;52.786;6.892;2023-08-07T08:20:35;9.52;;;3.00;;
52668;SDS011;59898;52.786;6.892;2023-08-07T08:23:56;9.30;;;3.50;;
52668;SDS011;59898;52.786;6.892;2023-08-07T08:27:17;6.93;;;3.38;;
52668;SDS011;59898;52.786;6.892;2023-08-07T08:30:37;6.95;;;3.63;;
52668;SDS011;59898;52.786;6.892;2023-08-07T08:33:58;7.68;;;3.40;;
52668;SDS011;59898;52.786;6.892;2023-08-07T08:37:19;6.50;;;3.00;;
52668;SDS011;59898;52.786;6.892;2023-08-07T08:40:39;9.43;;;3.00;;
52668;SDS011;59898;52.786;6.892;2023-08-07T08:44:00;9.45;;;3.40;;
52668;SDS011;59898;52.786;6.892;2023-08-07T08:47:24;8.35;;;3.20;;
52668;SDS011;59898;52.786;6.892;2023-08-07T08:54:06;6.63;;;2.75;;
52668;SDS011;59898;52.786;6.892;2023-08-07T08:57:28;8.05;;;2.70;;
52668;SDS011;59898;52.786;6.892;2023-08-07T09:00:49;6.72;;;2.55;;
52668;SDS011;59898;52.786;6.892;2023-08-07T09:04:11;6.07;;;3.67;;
52668;SDS011;59898;52.786;6.892;2023-08-07T09:07:31;6.88;;;3.35;;
52668;SDS011;59898;52.786;6.892;2023-08-07T09:10:53;8.00;;;3.80;;
52668;SDS011;59898;52.786;6.892;2023-08-07T09:14:18;11.35;;;4.50;;
52668;SDS011;59898;52.786;6.892;2023-08-07T09:17:42;8.02;;;3.70;;
52668;SDS011;59898;52.786;6.892;2023-08-07T09:21:05;11.38;;;4.90;;
52668;SDS011;59898;52.786;6.892;2023-08-07T09:24:25;8.27;;;3.53;;
52668;SDS011;59898;52.786;6.892;2023-08-07T09:27:46;7.22;;;3.50;;
52668;SDS011;59898;52.786;6.892;2023-08-07T09:31:07;14.80;;;4.72;;
52668;SDS011;59898;52.786;6.892;2023-08-07T09:34:30;11.65;;;3.92;;
52668;SDS011;59898;52.786;6.892;2023-08-07T09:37:50;8.55;;;3.75;;
52668;SDS011;59898;52.786;6.892;2023-08-07T09:41:11;11.98;;;4.07;;
52668;SDS011;59898;52.786;6.892;2023-08-07T09:44:35;14.57;;;4.30;;
52668;SDS011;59898;52.786;6.892;2023-08-07T09:48:00;10.05;;;4.72;;
52668;SDS011;59898;52.786;6.892;2023-08-07T09:51:24;7.80;;;4.22;;
52668;SDS011;59898;52.786;6.892;2023-08-07T09:54:45;11.00;;;3.28;;
52668;SDS011;59898;52.786;6.892;2023-08-07T09:58:05;6.40;;;4.45;;
52668;SDS011;59898;52.786;6.892;2023-08-07T10:01:28;11.65;;;3.63;;
52668;SDS011;59898;52.786;6.892;2023-08-07T10:04:49;8.30;;;2.85;;
52668;SDS011;59898;52.786;6.892;2023-08-07T10:08:11;7.13;;;2.80;;
52668;SDS011;59898;52.786;6.892;2023-08-07T10:11:32;7.10;;;2.58;;
52668;SDS011;59898;52.786;6.892;2023-08-07T10:14:53;7.65;;;2.70;;
52668;SDS011;59898;52.786;6.892;2023-08-07T10:18:14;9.65;;;3.70;;
52668;SDS011;59898;52.786;6.892;2023-08-07T10:21:35;6.55;;;2.60;;
52668;SDS011;59898;52.786;6.892;2023-08-07T10:24:59;9.93;;;3.38;;
52668;SDS011;59898;52.786;6.892;2023-08-07T10:28:22;10.20;;;3.78;;
52668;SDS011;59898;52.786;6.892;2023-08-07T10:31:44;6.88;;;2.63;;
52668;SDS011;59898;52.786;6.892;2023-08-07T10:35:06;8.45;;;3.38;;
52668;SDS011;59898;52.786;6.892;2023-08-07T10:38:27;10.15;;;3.63;;
52668;SDS011;59898;52.786;6.892;2023-08-07T10:41:48;9.77;;;3.65;;
52668;SDS011;59898;52.786;6.892;2023-08-07T10:45:15;10.32;;;3.83;;
52668;SDS011;59898;52.786;6.892;2023-08-07T10:52:10;7.35;;;3.28;;
52668;SDS011;59898;52.786;6.892;2023-08-07T10:55:44;6.90;;;3.28;;
52668;SDS011;59898;52.786;6.892;2023-08-07T10:59:09;7.95;;;2.97;;
52668;SDS011;59898;52.786;6.892;2023-08-07T11:02:31;7.43;;;3.20;;
52668;SDS011;59898;52.786;6.892;2023-08-07T11:05:57;5.85;;;2.80;;
52668;SDS011;59898;52.786;6.892;2023-08-07T11:09:18;8.60;;;3.05;;
52668;SDS011;59898;52.786;6.892;2023-08-07T11:12:39;7.88;;;3.65;;
52668;SDS011;59898;52.786;6.892;2023-08-07T11:16:00;11.75;;;6.85;;
52668;SDS011;59898;52.786;6.892;2023-08-07T11:19:22;11.23;;;3.08;;
52668;SDS011;59898;52.786;6.892;2023-08-07T11:22:43;7.78;;;3.20;;
52668;SDS011;59898;52.786;6.892;2023-08-07T11:26:04;11.20;;;4.53;;
52668;SDS011;59898;52.786;6.892;2023-08-07T11:29:25;9.18;;;3.35;;
52668;SDS011;59898;52.786;6.892;2023-08-07T11:32:45;8.35;;;3.40;;
52668;SDS011;59898;52.786;6.892;2023-08-07T11:36:15;6.20;;;3.45;;
52668;SDS011;59898;52.786;6.892;2023-08-07T11:39:41;5.75;;;3.53;;
52668;SDS011;59898;52.786;6.892;2023-08-07T11:43:02;7.53;;;4.53;;
52668;SDS011;59898;52.786;6.892;2023-08-07T11:46:23;8.50;;;3.10;;
52668;SDS011;59898;52.786;6.892;2023-08-07T11:49:43;6.25;;;3.05;;
52668;SDS011;59898;52.786;6.892;2023-08-07T11:53:04;9.05;;;3.10;;
52668;SDS011;59898;52.786;6.892;2023-08-07T11:56:25;5.00;;;2.92;;
52668;SDS011;59898;52.786;6.892;2023-08-07T11:59:51;9.40;;;3.00;;
52668;SDS011;59898;52.786;6.892;2023-08-07T12:06:52;5.90;;;2.65;;
52668;SDS011;59898;52.786;6.892;2023-08-07T12:10:14;4.32;;;2.70;;
52668;SDS011;59898;52.786;6.892;2023-08-07T12:13:39;5.25;;;2.55;;
52668;SDS011;59898;52.786;6.892;2023-08-07T12:17:02;7.22;;;2.72;;
52668;SDS011;59898;52.786;6.892;2023-08-07T12:20:24;9.88;;;3.80;;
52668;SDS011;59898;52.786;6.892;2023-08-07T12:23:45;4.18;;;2.38;;
52668;SDS011;59898;52.786;6.892;2023-08-07T12:27:07;6.80;;;2.83;;
52668;SDS011;59898;52.786;6.892;2023-08-07T12:30:28;6.78;;;3.00;;
52668;SDS011;59898;52.786;6.892;2023-08-07T12:33:50;12.30;;;2.55;;
52668;SDS011;59898;52.786;6.892;2023-08-07T12:37:10;6.40;;;3.15;;
52668;SDS011;59898;52.786;6.892;2023-08-07T12:40:31;6.72;;;2.60;;
52668;SDS011;59898;52.786;6.892;2023-08-07T12:43:52;7.07;;;3.33;;
52668;SDS011;59898;52.786;6.892;2023-08-07T12:47:13;3.92;;;3.10;;
52668;SDS011;59898;52.786;6.892;2023-08-07T12:50:33;8.27;;;2.60;;
52668;SDS011;59898;52.786;6.892;2023-08-07T12:53:54;13.65;;;3.75;;
52668;SDS011;59898;52.786;6.892;2023-08-07T12:57:15;6.00;;;2.90;;
52668;SDS011;59898;52.786;6.892;2023-08-07T13:00:35;6.95;;;2.92;;
52668;SDS011;59898;52.786;6.892;2023-08-07T13:03:56;6.25;;;2.60;;
52668;SDS011;59898;52.786;6.892;2023-08-07T13:07:17;8.75;;;2.80;;
52668;SDS011;59898;52.786;6.892;2023-08-07T13:10:38;4.93;;;3.00;;
52668;SDS011;59898;52.786;6.892;2023-08-07T13:13:59;4.05;;;2.45;;
52668;SDS011;59898;52.786;6.892;2023-08-07T13:17:19;6.57;;;3.00;;
52668;SDS011;59898;52.786;6.892;2023-08-07T13:24:08;4.72;;;2.65;;
52668;SDS011;59898;52.786;6.892;2023-08-07T13:27:29;4.97;;;2.97;;
52668;SDS011;59898;52.786;6.892;2023-08-07T13:30:50;3.15;;;2.17;;
52668;SDS011;59898;52.786;6.892;2023-08-07T13:34:11;7.65;;;2.97;;
52668;SDS011;59898;52.786;6.892;2023-08-07T13:37:32;5.20;;;2.95;;
52668;SDS011;59898;52.786;6.892;2023-08-07T13:40:53;3.92;;;2.35;;
52668;SDS011;59898;52.786;6.892;2023-08-07T13:44:14;4.55;;;2.42;;
52668;SDS011;59898;52.786;6.892;2023-08-07T13:47:34;5.80;;;3.05;;
52668;SDS011;59898;52.786;6.892;2023-08-07T13:50:55;3.90;;;2.78;;
52668;SDS011;59898;52.786;6.892;2023-08-07T13:54:16;5.28;;;2.45;;
52668;SDS011;59898;52.786;6.892;2023-08-07T13:57:37;4.22;;;2.60;;
52668;SDS011;59898;52.786;6.892;2023-08-07T14:00:58;11.95;;;3.15;;
52668;SDS011;59898;52.786;6.892;2023-08-07T14:04:18;6.50;;;3.33;;
52668;SDS011;59898;52.786;6.892;2023-08-07T14:07:40;6.53;;;3.10;;
52668;SDS011;59898;52.786;6.892;2023-08-07T14:11:01;7.40;;;3.40;;
52668;SDS011;59898;52.786;6.892;2023-08-07T14:14:22;4.28;;;3.00;;
52668;SDS011;59898;52.786;6.892;2023-08-07T14:17:43;4.97;;;3.15;;
52668;SDS011;59898;52.786;6.892;2023-08-07T14:21:04;5.25;;;3.10;;
52668;SDS011;59898;52.786;6.892;2023-08-07T14:24:24;9.18;;;3.65;;
52668;SDS011;59898;52.786;6.892;2023-08-07T14:27:45;7.15;;;3.30;;
52668;SDS011;59898;52.786;6.892;2023-08-07T14:31:06;4.72;;;3.03;;
52668;SDS011;59898;52.786;6.892;2023-08-07T14:34:28;6.47;;;3.35;;
52668;SDS011;59898;52.786;6.892;2023-08-07T14:37:48;7.93;;;3.03;;
52668;SDS011;59898;52.786;6.892;2023-08-07T14:41:09;8.82;;;3.53;;
52668;SDS011;59898;52.786;6.892;2023-08-07T14:44:30;7.32;;;3.67;;
52668;SDS011;59898;52.786;6.892;2023-08-07T14:47:50;5.93;;;3.83;;
52668;SDS011;59898;52.786;6.892;2023-08-07T14:51:11;6.05;;;3.35;;
52668;SDS011;59898;52.786;6.892;2023-08-07T14:54:33;4.55;;;3.13;;
52668;SDS011;59898;52.786;6.892;2023-08-07T14:57:54;7.47;;;3.40;;
52668;SDS011;59898;52.786;6.892;2023-08-07T15:01:14;6.15;;;3.50;;
52668;SDS011;59898;52.786;6.892;2023-08-07T15:04:35;7.93;;;2.97;;
52668;SDS011;59898;52.786;6.892;2023-08-07T15:07:55;9.95;;;4.13;;
52668;SDS011;59898;52.786;6.892;2023-08-07T15:11:16;6.05;;;3.10;;
52668;SDS011;59898;52.786;6.892;2023-08-07T15:14:37;6.32;;;3.22;;
52668;SDS011;59898;52.786;6.892;2023-08-07T15:17:57;9.13;;;3.50;;
52668;SDS011;59898;52.786;6.892;2023-08-07T15:21:18;7.75;;;3.70;;
52668;SDS011;59898;52.786;6.892;2023-08-07T15:24:39;5.32;;;3.20;;
52668;SDS011;59898;52.786;6.892;2023-08-07T15:27:59;6.13;;;4.15;;
52668;SDS011;59898;52.786;6.892;2023-08-07T15:31:20;5.00;;;2.63;;
52668;SDS011;59898;52.786;6.892;2023-08-07T15:34:41;8.13;;;2.75;;
52668;SDS011;59898;52.786;6.892;2023-08-07T15:38:01;4.97;;;2.65;;
52668;SDS011;59898;52.786;6.892;2023-08-07T15:41:22;5.00;;;3.00;;
52668;SDS011;59898;52.786;6.892;2023-08-07T15:44:43;4.03;;;2.42;;
52668;SDS011;59898;52.786;6.892;2023-08-07T15:48:03;5.30;;;2.58;;
52668;SDS011;59898;52.786;6.892;2023-08-07T15:51:24;8.15;;;2.40;;
52668;SDS011;59898;52.786;6.892;2023-08-07T15:54:45;5.32;;;2.80;;
52668;SDS011;59898;52.786;6.892;2023-08-07T15:58:06;6.93;;;2.70;;
52668;SDS011;59898;52.786;6.892;2023-08-07T16:01:27;6.10;;;2.78;;
52668;SDS011;59898;52.786;6.892;2023-08-07T16:04:47;5.00;;;2.67;;
52668;SDS011;59898;52.786;6.892;2023-08-07T16:08:08;6.22;;;2.60;;
52668;SDS011;59898;52.786;6.892;2023-08-07T16:11:28;5.95;;;2.60;;
52668;SDS011;59898;52.786;6.892;2023-08-07T16:14:50;4.40;;;2.40;;
52668;SDS011;59898;52.786;6.892;2023-08-07T16:18:10;6.30;;;2.67;;
52668;SDS011;59898;52.786;6.892;2023-08-07T16:21:31;4.22;;;2.67;;
52668;SDS011;59898;52.786;6.892;2023-08-07T16:24:51;6.63;;;2.85;;
52668;SDS011;59898;52.786;6.892;2023-08-07T16:28:12;6.50;;;2.70;;
52668;SDS011;59898;52.786;6.892;2023-08-07T16:31:33;4.50;;;2.60;;
52668;SDS011;59898;52.786;6.892;2023-08-07T16:34:54;5.22;;;2.60;;
52668;SDS011;59898;52.786;6.892;2023-08-07T16:38:15;4.82;;;2.95;;
52668;SDS011;59898;52.786;6.892;2023-08-07T16:41:35;6.60;;;2.53;;
52668;SDS011;59898;52.786;6.892;2023-08-07T16:44:56;6.78;;;2.40;;
52668;SDS011;59898;52.786;6.892;2023-08-07T16:48:16;9.93;;;3.85;;
52668;SDS011;59898;52.786;6.892;2023-08-07T16:51:37;5.70;;;2.60;;
52668;SDS011;59898;52.786;6.892;2023-08-07T16:54:57;5.35;;;2.20;;
52668;SDS011;59898;52.786;6.892;2023-08-07T16:58:18;8.32;;;2.22;;
52668;SDS011;59898;52.786;6.892;2023-08-07T17:01:39;6.32;;;2.55;;
52668;SDS011;59898;52.786;6.892;2023-08-07T17:04:59;4.40;;;2.30;;
52668;SDS011;59898;52.786;6.892;2023-08-07T17:08:20;5.70;;;2.58;;
52668;SDS011;59898;52.786;6.892;2023-08-07T17:11:41;3.38;;;2.40;;
52668;SDS011;59898;52.786;6.892;2023-08-07T17:15:01;6.13;;;2.30;;
52668;SDS011;59898;52.786;6.892;2023-08-07T17:18:22;6.53;;;2.38;;
52668;SDS011;59898;52.786;6.892;2023-08-07T17:21:43;6.13;;;2.38;;
52668;SDS011;59898;52.786;6.892;2023-08-07T17:25:03;9.27;;;3.45;;
52668;SDS011;59898;52.786;6.892;2023-08-07T17:28:24;5.43;;;2.47;;
52668;SDS011;59898;52.786;6.892;2023-08-07T17:35:08;4.45;;;2.10;;
52668;SDS011;59898;52.786;6.892;2023-08-07T17:38:28;5.00;;;2.10;;
52668;SDS011;59898;52.786;6.892;2023-08-07T17:41:49;7.43;;;2.40;;
52668;SDS011;59898;52.786;6.892;2023-08-07T17:45:09;5.43;;;2.40;;
52668;SDS011;59898;52.786;6.892;2023-08-07T17:48:30;3.78;;;2.30;;
52668;SDS011;59898;52.786;6.892;2023-08-07T17:51:51;4.82;;;2.17;;
52668;SDS011;59898;52.786;6.892;2023-08-07T17:55:11;6.25;;;2.47;;
52668;SDS011;59898;52.786;6.892;2023-08-07T18:01:55;5.30;;;2.42;;
52668;SDS011;59898;52.786;6.892;2023-08-07T18:05:15;4.25;;;2.17;;
52668;SDS011;59898;52.786;6.892;2023-08-07T18:08:36;7.25;;;2.33;;
52668;SDS011;59898;52.786;6.892;2023-08-07T18:11:57;3.92;;;2.30;;
52668;SDS011;59898;52.786;6.892;2023-08-07T18:15:17;4.15;;;2.40;;
52668;SDS011;59898;52.786;6.892;2023-08-07T18:18:38;5.03;;;2.42;;
52668;SDS011;59898;52.786;6.892;2023-08-07T18:21:58;5.55;;;2.22;;
52668;SDS011;59898;52.786;6.892;2023-08-07T18:25:19;4.03;;;1.90;;
52668;SDS011;59898;52.786;6.892;2023-08-07T18:28:40;9.30;;;2.45;;
52668;SDS011;59898;52.786;6.892;2023-08-07T18:32:01;4.88;;;3.30;;
52668;SDS011;59898;52.786;6.892;2023-08-07T18:35:21;5.22;;;2.28;;
52668;SDS011;59898;52.786;6.892;2023-08-07T18:38:42;5.15;;;2.08;;
52668;SDS011;59898;52.786;6.892;2023-08-07T18:42:02;8.38;;;2.63;;
52668;SDS011;59898;52.786;6.892;2023-08-07T18:45:23;6.07;;;2.35;;
52668;SDS011;59898;52.786;6.892;2023-08-07T18:48:44;7.10;;;3.10;;
52668;SDS011;59898;52.786;6.892;2023-08-07T18:52:04;4.07;;;2.53;;
52668;SDS011;59898;52.786;6.892;2023-08-07T18:55:25;5.13;;;2.80;;
52668;SDS011;59898;52.786;6.892;2023-08-07T18:58:46;6.00;;;2.63;;
52668;SDS011;59898;52.786;6.892;2023-08-07T19:02:07;5.63;;;2.40;;
52668;SDS011;59898;52.786;6.892;2023-08-07T19:05:28;5.03;;;2.78;;
52668;SDS011;59898;52.786;6.892;2023-08-07T19:08:48;6.20;;;2.35;;
52668;SDS011;59898;52.786;6.892;2023-08-07T19:12:09;4.40;;;3.03;;
52668;SDS011;59898;52.786;6.892;2023-08-07T19:15:29;10.43;;;2.65;;
52668;SDS011;59898;52.786;6.892;2023-08-07T19:18:50;6.90;;;2.85;;
52668;SDS011;59898;52.786;6.892;2023-08-07T19:22:10;5.75;;;3.03;;
52668;SDS011;59898;52.786;6.892;2023-08-07T19:25:31;5.13;;;2.53;;
52668;SDS011;59898;52.786;6.892;2023-08-07T19:28:52;10.02;;;4.35;;
52668;SDS011;59898;52.786;6.892;2023-08-07T19:32:13;3.80;;;2.40;;
52668;SDS011;59898;52.786;6.892;2023-08-07T19:35:34;4.65;;;2.38;;
52668;SDS011;59898;52.786;6.892;2023-08-07T19:38:56;7.93;;;3.47;;
52668;SDS011;59898;52.786;6.892;2023-08-07T19:42:17;5.47;;;2.53;;
52668;SDS011;59898;52.786;6.892;2023-08-07T19:45:37;8.48;;;2.53;;
52668;SDS011;59898;52.786;6.892;2023-08-07T19:48:58;4.60;;;3.15;;
52668;SDS011;59898;52.786;6.892;2023-08-07T19:52:19;4.38;;;2.33;;
52668;SDS011;59898;52.786;6.892;2023-08-07T19:55:39;3.08;;;2.30;;
52668;SDS011;59898;52.786;6.892;2023-08-07T19:59:00;4.97;;;2.53;;
52668;SDS011;59898;52.786;6.892;2023-08-07T20:02:23;4.38;;;2.42;;
52668;SDS011;59898;52.786;6.892;2023-08-07T20:05:44;5.25;;;2.75;;
52668;SDS011;59898;52.786;6.892;2023-08-07T20:09:04;6.70;;;2.55;;
52668;SDS011;59898;52.786;6.892;2023-08-07T20:12:25;4.50;;;2.20;;
52668;SDS011;59898;52.786;6.892;2023-08-07T20:15:46;11.48;;;7.50;;
52668;SDS011;59898;52.786;6.892;2023-08-07T20:19:07;4.43;;;2.75;;
52668;SDS011;59898;52.786;6.892;2023-08-07T20:22:27;6.43;;;3.00;;
52668;SDS011;59898;52.786;6.892;2023-08-07T20:25:48;6.18;;;2.78;;
52668;SDS011;59898;52.786;6.892;2023-08-07T20:29:09;4.65;;;2.40;;
52668;SDS011;59898;52.786;6.892;2023-08-07T20:32:29;6.07;;;2.60;;